• Join FlightAware (Why Join?)
  • Login
  • US Flag 
11:44AM EST


 

Airport Tracker/Info


-or-


 

Live Flight TrackerFlight Track Log ✈ FIN666 ✈ 10-Feb-2014 ✈ EKCH / CPH - EFHK / HEL

Flight Track Log - Related Links

Times and Time Zones

All times are in EST time to prevent confusion due to time zone crossing. See the FIN666 flight status page for this flight to view local times or setup timezone preferences in your user account.

Time Position Orientation Groundspeed Altitude Reporting Facility
EST Latitude Longitude Course Direction KTS MPH feet Rate Location/Type
07:25AM 55.9122 13.2660 49° Northeast  Level Estimated
07:26AM 55.9853 13.4199 50° Northeast  Level Estimated
07:27AM 56.0582 13.5744 50° Northeast  Level Estimated
07:28AM 56.1352 13.7388 50° Northeast  Level Estimated
07:29AM 56.2120 13.9039 50° Northeast  Level Estimated
07:30AM 56.2886 14.0696 50° Northeast  Level Estimated
07:31AM 56.3650 14.2359 50° Northeast  Level Estimated
07:32AM 56.4412 14.4030 50° Northeast  Level Estimated
07:33AM 56.5171 14.5707 51° Northeast  Level Estimated
07:34AM 56.5928 14.7391 51° Northeast  Level Estimated
07:35AM 56.6683 14.9081 51° Northeast  Level Estimated
07:36AM 56.7435 15.0779 51° Northeast  Level Estimated
07:37AM 56.8185 15.2483 51° Northeast  Level Estimated
07:38AM 56.8933 15.4194 51° Northeast  Level Estimated
07:39AM 56.9678 15.5912 51° Northeast  Level Estimated
07:40AM 57.0421 15.7636 52° Northeast  Level Estimated
07:41AM 57.1162 15.9368 52° Northeast  Level Estimated
07:42AM 57.1900 16.1106 52° Northeast  Level Estimated
07:43AM 57.2636 16.2852 52° Northeast  Level Estimated
07:44AM 57.3370 16.4604 52° Northeast  Level Estimated
07:45AM 57.4101 16.6364 52° Northeast  Level Estimated
07:46AM 57.4829 16.8130 52° Northeast  Level Estimated
07:47AM 57.5555 16.9904 53° Northeast  Level Estimated
07:48AM 57.6279 17.1684 53° Northeast  Level Estimated
07:49AM 57.7000 17.3472 53° Northeast  Level Estimated
07:50AM 57.7719 17.5267 53° Northeast  Level Estimated
07:51AM 57.8435 17.7069 53° Northeast  Level Estimated
07:52AM 57.9148 17.8878 53° Northeast  Level Estimated
07:53AM 57.9859 18.0694 54° Northeast  Level Estimated
07:54AM 58.0567 18.2518 54° Northeast  Level Estimated
07:55AM 58.1273 18.4349 54° Northeast  Level Estimated
07:56AM 58.1976 18.6187 54° Northeast  Level Estimated
07:57AM 58.2676 18.8032 54° Northeast  Level Estimated
07:58AM 58.3374 18.9884 54° Northeast  Level Estimated
07:59AM 58.4069 19.1744 54° Northeast  Level Estimated
08:00AM 58.4761 19.3612 55° Northeast  Level Estimated
08:01AM 58.5451 19.5486 55° Northeast  Level Estimated
08:02AM 58.6137 19.7368 55° Northeast  Level Estimated
08:03AM 58.6822 19.9258 55° Northeast  Level Estimated
08:04AM 58.7503 20.1154 55° Northeast  Level Estimated
08:05AM 58.8181 20.3059 55° Northeast  Level Estimated
08:06AM 58.8857 20.4970 56° Northeast  Level Estimated
08:07AM 58.9530 20.6889 56° Northeast  Level Estimated
08:08AM 59.0200 20.8816 56° Northeast  Level Estimated
08:09AM 59.0867 21.0750 56° Northeast  Level Estimated
08:10AM 59.1531 21.2692 56° Northeast  Level Estimated
08:11AM 59.2192 21.4641 56° Northeast  Level Estimated
08:12AM 59.2851 21.6598 57° Northeast  Level Estimated
08:13AM 59.3506 21.8562 57° Northeast  Level Estimated
08:14AM 59.4140 22.0476 57° Northeast  Level Estimated
08:15AM 59.4771 22.2398 57° Northeast  Level Estimated
08:16AM 59.5399 22.4327 57° Northeast  Level Estimated
08:17AM 59.6024 22.6263 57° Northeast  Level Estimated
08:18AM 59.6646 22.8207 58° Northeast  Level Estimated
08:19AM 59.7265 23.0157 58° Northeast  Level Estimated
08:20AM 59.7882 23.2115 58° Northeast  Level Estimated
08:21AM 59.8495 23.4080 58° Northeast  Level Estimated
08:22AM 59.9106 23.6052 58° Northeast  Level Estimated
08:23AM 59.9714 23.8032 58° Northeast  Level Estimated
08:24AM 60.0318 24.0018 59° Northeast  Level Estimated
08:25AM 60.0920 24.2012 59° Northeast  Level Estimated
08:26AM 60.1519 24.4014 59° Northeast  Level Estimated
08:27AM 60.2114 24.6022 59° Northeast  Level Estimated
08:28AM 60.2707 24.8038 59° Northeast  Level Estimated
08:29AM 60.3172 24.9633 59° Northeast  Level Estimated
08:30AM 60.3172 24.9633 37° Northeast  Level Estimated
08:31AM 60.3172 24.9633 37° Northeast  Level Estimated
08:32AM 60.3172 24.9633 37° Northeast  Level Estimated
08:33AM 60.3172 24.9633 37° Northeast  Level Estimated
08:34AM 60.3172 24.9633 37° Northeast  Level Estimated
08:35AM 60.3172 24.9633 37° Northeast  Level Estimated
08:36AM 60.3172 24.9633 37° Northeast  Level Estimated
08:37AM 60.3172 24.9633 37° Northeast  Level Estimated
08:38AM 60.3172 24.9633 37° Northeast  Level Estimated
08:39AM 60.3172 24.9633 37° Northeast  Level Estimated
08:40AM 60.3172 24.9633 37° Northeast  Level Estimated